sensor_id;sensor_type;location;lat;lon;timestamp;P1;durP1;ratioP1;P2;durP2;ratioP2
52956;SDS011;38819;42.692;23.342;2023-09-18T00:02:07;21.92;;;17.55;;
52956;SDS011;38819;42.692;23.342;2023-09-18T00:04:32;21.38;;;17.77;;
52956;SDS011;38819;42.692;23.342;2023-09-18T00:06:58;23.65;;;17.15;;
52956;SDS011;38819;42.692;23.342;2023-09-18T00:09:24;22.15;;;17.00;;
52956;SDS011;38819;42.692;23.342;2023-09-18T00:11:49;19.35;;;17.33;;
52956;SDS011;38819;42.692;23.342;2023-09-18T00:14:15;23.63;;;17.17;;
52956;SDS011;38819;42.692;23.342;2023-09-18T00:16:40;23.08;;;18.10;;
52956;SDS011;38819;42.692;23.342;2023-09-18T00:19:06;21.15;;;18.95;;
52956;SDS011;38819;42.692;23.342;2023-09-18T00:21:33;19.90;;;17.73;;
52956;SDS011;38819;42.692;23.342;2023-09-18T00:23:59;20.15;;;17.42;;
52956;SDS011;38819;42.692;23.342;2023-09-18T00:26:25;19.65;;;17.55;;
52956;SDS011;38819;42.692;23.342;2023-09-18T00:28:50;22.10;;;18.83;;
52956;SDS011;38819;42.692;23.342;2023-09-18T00:31:16;21.00;;;17.38;;
52956;SDS011;38819;42.692;23.342;2023-09-18T00:33:41;19.70;;;17.70;;
52956;SDS011;38819;42.692;23.342;2023-09-18T00:36:07;21.00;;;18.40;;
52956;SDS011;38819;42.692;23.342;2023-09-18T00:38:32;23.33;;;18.45;;
52956;SDS011;38819;42.692;23.342;2023-09-18T00:40:58;21.85;;;18.42;;
52956;SDS011;38819;42.692;23.342;2023-09-18T00:43:23;21.63;;;19.33;;
52956;SDS011;38819;42.692;23.342;2023-09-18T00:45:48;23.25;;;19.40;;
52956;SDS011;38819;42.692;23.342;2023-09-18T00:48:15;20.38;;;18.27;;
52956;SDS011;38819;42.692;23.342;2023-09-18T00:50:42;20.85;;;18.70;;
52956;SDS011;38819;42.692;23.342;2023-09-18T00:53:09;19.52;;;17.45;;
52956;SDS011;38819;42.692;23.342;2023-09-18T00:55:39;19.02;;;17.02;;
52956;SDS011;38819;42.692;23.342;2023-09-18T00:58:05;24.55;;;17.77;;
52956;SDS011;38819;42.692;23.342;2023-09-18T01:00:31;17.88;;;15.82;;
52956;SDS011;38819;42.692;23.342;2023-09-18T01:02:56;17.55;;;15.70;;
52956;SDS011;38819;42.692;23.342;2023-09-18T01:05:22;18.65;;;15.20;;
52956;SDS011;38819;42.692;23.342;2023-09-18T01:07:47;18.88;;;15.48;;
52956;SDS011;38819;42.692;23.342;2023-09-18T01:10:13;17.25;;;15.43;;
52956;SDS011;38819;42.692;23.342;2023-09-18T01:12:53;16.30;;;14.60;;
52956;SDS011;38819;42.692;23.342;2023-09-18T01:15:30;18.52;;;14.60;;
52956;SDS011;38819;42.692;23.342;2023-09-18T01:18:00;17.90;;;13.98;;
52956;SDS011;38819;42.692;23.342;2023-09-18T01:20:26;21.17;;;13.55;;
52956;SDS011;38819;42.692;23.342;2023-09-18T01:22:52;15.07;;;12.85;;
52956;SDS011;38819;42.692;23.342;2023-09-18T01:25:18;15.15;;;13.30;;
52956;SDS011;38819;42.692;23.342;2023-09-18T01:27:43;14.45;;;13.00;;
52956;SDS011;38819;42.692;23.342;2023-09-18T01:30:09;21.98;;;13.07;;
52956;SDS011;38819;42.692;23.342;2023-09-18T01:32:34;13.18;;;11.80;;
52956;SDS011;38819;42.692;23.342;2023-09-18T01:35:02;14.38;;;12.65;;
52956;SDS011;38819;42.692;23.342;2023-09-18T01:37:31;18.05;;;12.38;;
52956;SDS011;38819;42.692;23.342;2023-09-18T01:39:58;15.38;;;12.15;;
52956;SDS011;38819;42.692;23.342;2023-09-18T01:42:24;15.63;;;12.20;;
52956;SDS011;38819;42.692;23.342;2023-09-18T01:47:18;15.97;;;12.73;;
52956;SDS011;38819;42.692;23.342;2023-09-18T01:49:45;14.20;;;11.50;;
52956;SDS011;38819;42.692;23.342;2023-09-18T01:52:11;14.43;;;11.70;;
52956;SDS011;38819;42.692;23.342;2023-09-18T01:54:37;13.30;;;11.48;;
52956;SDS011;38819;42.692;23.342;2023-09-18T01:57:03;17.00;;;12.50;;
52956;SDS011;38819;42.692;23.342;2023-09-18T01:59:29;12.38;;;11.20;;
52956;SDS011;38819;42.692;23.342;2023-09-18T02:01:55;14.23;;;12.73;;
52956;SDS011;38819;42.692;23.342;2023-09-18T02:04:21;14.27;;;12.70;;
52956;SDS011;38819;42.692;23.342;2023-09-18T02:06:47;16.73;;;12.15;;
52956;SDS011;38819;42.692;23.342;2023-09-18T02:09:15;17.02;;;11.88;;
52956;SDS011;38819;42.692;23.342;2023-09-18T02:11:42;16.33;;;14.23;;
52956;SDS011;38819;42.692;23.342;2023-09-18T02:14:08;15.40;;;13.80;;
52956;SDS011;38819;42.692;23.342;2023-09-18T02:16:35;16.98;;;13.68;;
52956;SDS011;38819;42.692;23.342;2023-09-18T02:21:28;15.73;;;14.00;;
52956;SDS011;38819;42.692;23.342;2023-09-18T02:23:54;17.15;;;14.52;;
52956;SDS011;38819;42.692;23.342;2023-09-18T02:26:20;19.45;;;14.35;;
52956;SDS011;38819;42.692;23.342;2023-09-18T02:28:46;15.53;;;13.47;;
52956;SDS011;38819;42.692;23.342;2023-09-18T02:31:12;14.38;;;12.80;;
52956;SDS011;38819;42.692;23.342;2023-09-18T02:33:38;14.50;;;12.98;;
52956;SDS011;38819;42.692;23.342;2023-09-18T02:36:04;25.53;;;12.97;;
52956;SDS011;38819;42.692;23.342;2023-09-18T02:38:30;15.38;;;12.45;;
52956;SDS011;38819;42.692;23.342;2023-09-18T02:40:55;15.02;;;12.18;;
52956;SDS011;38819;42.692;23.342;2023-09-18T02:43:22;14.43;;;12.73;;
52956;SDS011;38819;42.692;23.342;2023-09-18T02:45:48;13.30;;;11.90;;
52956;SDS011;38819;42.692;23.342;2023-09-18T02:48:13;13.98;;;11.93;;
52956;SDS011;38819;42.692;23.342;2023-09-18T02:50:39;13.88;;;11.57;;
52956;SDS011;38819;42.692;23.342;2023-09-18T02:53:05;12.00;;;10.52;;
52956;SDS011;38819;42.692;23.342;2023-09-18T02:55:32;13.38;;;10.70;;
52956;SDS011;38819;42.692;23.342;2023-09-18T02:57:57;14.88;;;10.77;;
52956;SDS011;38819;42.692;23.342;2023-09-18T03:00:24;12.90;;;11.27;;
52956;SDS011;38819;42.692;23.342;2023-09-18T03:02:49;16.85;;;10.55;;
52956;SDS011;38819;42.692;23.342;2023-09-18T03:05:15;13.10;;;10.27;;
52956;SDS011;38819;42.692;23.342;2023-09-18T03:07:40;12.73;;;10.38;;
52956;SDS011;38819;42.692;23.342;2023-09-18T03:10:06;12.48;;;10.35;;
52956;SDS011;38819;42.692;23.342;2023-09-18T03:12:32;12.07;;;10.80;;
52956;SDS011;38819;42.692;23.342;2023-09-18T03:14:58;14.27;;;10.93;;
52956;SDS011;38819;42.692;23.342;2023-09-18T03:17:24;15.27;;;11.40;;
52956;SDS011;38819;42.692;23.342;2023-09-18T03:19:49;13.82;;;11.35;;
52956;SDS011;38819;42.692;23.342;2023-09-18T03:22:15;14.52;;;11.40;;
52956;SDS011;38819;42.692;23.342;2023-09-18T03:24:40;14.65;;;10.88;;
52956;SDS011;38819;42.692;23.342;2023-09-18T03:27:06;12.95;;;11.65;;
52956;SDS011;38819;42.692;23.342;2023-09-18T03:29:31;14.13;;;12.63;;
52956;SDS011;38819;42.692;23.342;2023-09-18T03:31:56;14.73;;;12.25;;
52956;SDS011;38819;42.692;23.342;2023-09-18T03:34:24;17.92;;;13.75;;
52956;SDS011;38819;42.692;23.342;2023-09-18T03:36:52;15.75;;;13.23;;
52956;SDS011;38819;42.692;23.342;2023-09-18T03:39:18;14.18;;;12.57;;
52956;SDS011;38819;42.692;23.342;2023-09-18T03:41:43;15.30;;;12.88;;
52956;SDS011;38819;42.692;23.342;2023-09-18T03:44:09;16.08;;;12.15;;
52956;SDS011;38819;42.692;23.342;2023-09-18T03:46:35;18.65;;;13.85;;
52956;SDS011;38819;42.692;23.342;2023-09-18T03:49:01;17.38;;;13.80;;
52956;SDS011;38819;42.692;23.342;2023-09-18T03:51:28;19.33;;;14.07;;
52956;SDS011;38819;42.692;23.342;2023-09-18T03:53:54;16.10;;;14.03;;
52956;SDS011;38819;42.692;23.342;2023-09-18T03:56:20;24.50;;;15.55;;
52956;SDS011;38819;42.692;23.342;2023-09-18T03:58:47;22.83;;;16.63;;
52956;SDS011;38819;42.692;23.342;2023-09-18T04:01:14;20.83;;;14.63;;
52956;SDS011;38819;42.692;23.342;2023-09-18T04:03:43;18.33;;;16.13;;
52956;SDS011;38819;42.692;23.342;2023-09-18T04:06:08;20.85;;;15.15;;
52956;SDS011;38819;42.692;23.342;2023-09-18T04:08:33;21.58;;;16.20;;
52956;SDS011;38819;42.692;23.342;2023-09-18T04:10:59;25.50;;;17.38;;
52956;SDS011;38819;42.692;23.342;2023-09-18T04:13:24;19.42;;;16.10;;
52956;SDS011;38819;42.692;23.342;2023-09-18T04:15:50;24.73;;;16.40;;
52956;SDS011;38819;42.692;23.342;2023-09-18T04:18:21;23.50;;;16.70;;
52956;SDS011;38819;42.692;23.342;2023-09-18T04:20:47;22.13;;;16.02;;
52956;SDS011;38819;42.692;23.342;2023-09-18T04:23:23;20.98;;;16.20;;
52956;SDS011;38819;42.692;23.342;2023-09-18T04:25:52;18.95;;;15.05;;
52956;SDS011;38819;42.692;23.342;2023-09-18T04:28:19;21.83;;;15.48;;
52956;SDS011;38819;42.692;23.342;2023-09-18T04:30:46;24.27;;;16.15;;
52956;SDS011;38819;42.692;23.342;2023-09-18T04:33:12;23.60;;;15.52;;
52956;SDS011;38819;42.692;23.342;2023-09-18T04:35:39;22.55;;;14.50;;
52956;SDS011;38819;42.692;23.342;2023-09-18T04:38:05;19.73;;;14.25;;
52956;SDS011;38819;42.692;23.342;2023-09-18T04:40:32;28.88;;;14.63;;
52956;SDS011;38819;42.692;23.342;2023-09-18T04:43:00;16.63;;;13.85;;
52956;SDS011;38819;42.692;23.342;2023-09-18T04:45:26;22.40;;;13.75;;
52956;SDS011;38819;42.692;23.342;2023-09-18T04:47:52;23.70;;;15.20;;
52956;SDS011;38819;42.692;23.342;2023-09-18T04:50:18;18.20;;;13.77;;
52956;SDS011;38819;42.692;23.342;2023-09-18T04:52:44;20.98;;;14.35;;
52956;SDS011;38819;42.692;23.342;2023-09-18T04:55:10;21.58;;;14.32;;
52956;SDS011;38819;42.692;23.342;2023-09-18T04:57:36;19.98;;;15.30;;
52956;SDS011;38819;42.692;23.342;2023-09-18T05:00:03;29.90;;;16.17;;
52956;SDS011;38819;42.692;23.342;2023-09-18T05:02:33;22.65;;;16.40;;
52956;SDS011;38819;42.692;23.342;2023-09-18T05:04:59;19.58;;;15.82;;
52956;SDS011;38819;42.692;23.342;2023-09-18T05:07:25;22.23;;;15.52;;
52956;SDS011;38819;42.692;23.342;2023-09-18T05:09:51;23.45;;;17.40;;
52956;SDS011;38819;42.692;23.342;2023-09-18T05:12:16;22.60;;;16.92;;
52956;SDS011;38819;42.692;23.342;2023-09-18T05:14:42;23.20;;;18.55;;
52956;SDS011;38819;42.692;23.342;2023-09-18T05:17:13;22.25;;;16.38;;
52956;SDS011;38819;42.692;23.342;2023-09-18T05:19:40;25.27;;;16.40;;
52956;SDS011;38819;42.692;23.342;2023-09-18T05:22:06;20.00;;;14.80;;
52956;SDS011;38819;42.692;23.342;2023-09-18T05:24:33;20.13;;;15.27;;
52956;SDS011;38819;42.692;23.342;2023-09-18T05:26:58;16.98;;;14.52;;
52956;SDS011;38819;42.692;23.342;2023-09-18T05:29:24;24.90;;;14.68;;
52956;SDS011;38819;42.692;23.342;2023-09-18T05:31:49;23.05;;;14.70;;
52956;SDS011;38819;42.692;23.342;2023-09-18T05:34:14;17.98;;;14.80;;
52956;SDS011;38819;42.692;23.342;2023-09-18T05:36:40;31.13;;;17.08;;
52956;SDS011;38819;42.692;23.342;2023-09-18T05:39:06;26.75;;;15.32;;
52956;SDS011;38819;42.692;23.342;2023-09-18T05:41:36;23.77;;;16.80;;
52956;SDS011;38819;42.692;23.342;2023-09-18T05:44:02;32.15;;;18.67;;
52956;SDS011;38819;42.692;23.342;2023-09-18T05:46:30;24.63;;;18.60;;
52956;SDS011;38819;42.692;23.342;2023-09-18T05:48:56;27.65;;;18.17;;
52956;SDS011;38819;42.692;23.342;2023-09-18T05:53:48;34.53;;;18.08;;
52956;SDS011;38819;42.692;23.342;2023-09-18T05:56:14;25.58;;;18.45;;
52956;SDS011;38819;42.692;23.342;2023-09-18T05:58:42;30.95;;;16.90;;
52956;SDS011;38819;42.692;23.342;2023-09-18T06:01:07;21.10;;;16.02;;
52956;SDS011;38819;42.692;23.342;2023-09-18T06:03:33;22.67;;;16.92;;
52956;SDS011;38819;42.692;23.342;2023-09-18T06:06:01;21.45;;;15.15;;
52956;SDS011;38819;42.692;23.342;2023-09-18T06:08:35;19.40;;;15.23;;
52956;SDS011;38819;42.692;23.342;2023-09-18T06:11:01;18.48;;;14.57;;
52956;SDS011;38819;42.692;23.342;2023-09-18T06:13:27;17.23;;;14.70;;
52956;SDS011;38819;42.692;23.342;2023-09-18T06:15:53;17.13;;;14.60;;
52956;SDS011;38819;42.692;23.342;2023-09-18T06:18:20;19.70;;;15.23;;
52956;SDS011;38819;42.692;23.342;2023-09-18T06:20:47;21.63;;;15.63;;
52956;SDS011;38819;42.692;23.342;2023-09-18T06:23:12;24.92;;;14.07;;
52956;SDS011;38819;42.692;23.342;2023-09-18T06:25:39;21.45;;;14.73;;
52956;SDS011;38819;42.692;23.342;2023-09-18T06:28:04;15.82;;;12.38;;
52956;SDS011;38819;42.692;23.342;2023-09-18T06:30:30;16.83;;;13.23;;
52956;SDS011;38819;42.692;23.342;2023-09-18T06:32:56;18.30;;;13.27;;
52956;SDS011;38819;42.692;23.342;2023-09-18T06:35:22;26.65;;;14.90;;
52956;SDS011;38819;42.692;23.342;2023-09-18T06:37:47;18.00;;;14.38;;
52956;SDS011;38819;42.692;23.342;2023-09-18T06:40:13;18.98;;;14.88;;
52956;SDS011;38819;42.692;23.342;2023-09-18T06:42:38;24.58;;;16.08;;
52956;SDS011;38819;42.692;23.342;2023-09-18T06:45:04;23.65;;;14.95;;
52956;SDS011;38819;42.692;23.342;2023-09-18T06:49:57;19.75;;;16.13;;
52956;SDS011;38819;42.692;23.342;2023-09-18T06:52:23;26.70;;;15.40;;
52956;SDS011;38819;42.692;23.342;2023-09-18T06:54:50;22.67;;;16.27;;
52956;SDS011;38819;42.692;23.342;2023-09-18T06:57:15;20.90;;;15.77;;
52956;SDS011;38819;42.692;23.342;2023-09-18T06:59:40;20.70;;;15.95;;
52956;SDS011;38819;42.692;23.342;2023-09-18T07:02:06;22.08;;;15.93;;
52956;SDS011;38819;42.692;23.342;2023-09-18T07:04:31;22.55;;;16.42;;
52956;SDS011;38819;42.692;23.342;2023-09-18T07:06:57;20.35;;;15.70;;
52956;SDS011;38819;42.692;23.342;2023-09-18T07:09:22;22.08;;;16.00;;
52956;SDS011;38819;42.692;23.342;2023-09-18T07:11:48;23.70;;;15.18;;
52956;SDS011;38819;42.692;23.342;2023-09-18T07:14:13;18.58;;;15.50;;
52956;SDS011;38819;42.692;23.342;2023-09-18T07:16:39;25.88;;;15.88;;
52956;SDS011;38819;42.692;23.342;2023-09-18T07:19:05;21.38;;;16.25;;
52956;SDS011;38819;42.692;23.342;2023-09-18T07:21:30;24.75;;;16.08;;
52956;SDS011;38819;42.692;23.342;2023-09-18T07:23:56;27.40;;;19.83;;
52956;SDS011;38819;42.692;23.342;2023-09-18T07:26:21;25.45;;;18.05;;
52956;SDS011;38819;42.692;23.342;2023-09-18T07:28:47;27.00;;;17.95;;
52956;SDS011;38819;42.692;23.342;2023-09-18T07:31:13;21.92;;;16.55;;
52956;SDS011;38819;42.692;23.342;2023-09-18T07:33:39;22.73;;;16.40;;
52956;SDS011;38819;42.692;23.342;2023-09-18T07:36:06;22.25;;;15.00;;
52956;SDS011;38819;42.692;23.342;2023-09-18T07:38:31;19.52;;;15.57;;
52956;SDS011;38819;42.692;23.342;2023-09-18T07:40:57;21.92;;;16.90;;
52956;SDS011;38819;42.692;23.342;2023-09-18T07:43:23;23.05;;;16.40;;
52956;SDS011;38819;42.692;23.342;2023-09-18T07:48:15;18.42;;;14.38;;
52956;SDS011;38819;42.692;23.342;2023-09-18T07:50:44;18.88;;;15.60;;
52956;SDS011;38819;42.692;23.342;2023-09-18T07:53:10;22.05;;;16.75;;
52956;SDS011;38819;42.692;23.342;2023-09-18T07:55:36;15.10;;;13.57;;
52956;SDS011;38819;42.692;23.342;2023-09-18T07:58:01;24.10;;;14.52;;
52956;SDS011;38819;42.692;23.342;2023-09-18T08:00:28;29.40;;;14.97;;
52956;SDS011;38819;42.692;23.342;2023-09-18T08:02:54;27.60;;;16.20;;
52956;SDS011;38819;42.692;23.342;2023-09-18T08:05:25;23.08;;;14.73;;
52956;SDS011;38819;42.692;23.342;2023-09-18T08:07:55;19.98;;;14.77;;
52956;SDS011;38819;42.692;23.342;2023-09-18T08:10:21;19.15;;;15.13;;
52956;SDS011;38819;42.692;23.342;2023-09-18T08:12:47;27.42;;;14.77;;
52956;SDS011;38819;42.692;23.342;2023-09-18T08:15:13;20.48;;;15.48;;
52956;SDS011;38819;42.692;23.342;2023-09-18T08:17:39;17.42;;;13.68;;
52956;SDS011;38819;42.692;23.342;2023-09-18T08:20:06;17.87;;;14.30;;
52956;SDS011;38819;42.692;23.342;2023-09-18T08:22:37;16.13;;;14.45;;
52956;SDS011;38819;42.692;23.342;2023-09-18T08:25:03;22.83;;;14.45;;
52956;SDS011;38819;42.692;23.342;2023-09-18T08:27:29;19.17;;;14.27;;
52956;SDS011;38819;42.692;23.342;2023-09-18T08:29:55;36.33;;;15.25;;
52956;SDS011;38819;42.692;23.342;2023-09-18T08:32:21;21.85;;;12.80;;
52956;SDS011;38819;42.692;23.342;2023-09-18T08:34:46;18.77;;;12.82;;
52956;SDS011;38819;42.692;23.342;2023-09-18T08:37:12;17.23;;;12.70;;
52956;SDS011;38819;42.692;23.342;2023-09-18T08:39:38;19.08;;;12.68;;
52956;SDS011;38819;42.692;23.342;2023-09-18T08:42:04;22.55;;;13.55;;
52956;SDS011;38819;42.692;23.342;2023-09-18T08:44:30;18.40;;;12.85;;
52956;SDS011;38819;42.692;23.342;2023-09-18T08:46:56;18.27;;;14.13;;
52956;SDS011;38819;42.692;23.342;2023-09-18T08:49:25;20.90;;;13.68;;
52956;SDS011;38819;42.692;23.342;2023-09-18T08:51:53;14.57;;;13.10;;
52956;SDS011;38819;42.692;23.342;2023-09-18T08:56:46;23.85;;;14.27;;
52956;SDS011;38819;42.692;23.342;2023-09-18T08:59:12;18.48;;;14.82;;
52956;SDS011;38819;42.692;23.342;2023-09-18T09:01:38;18.23;;;14.57;;
52956;SDS011;38819;42.692;23.342;2023-09-18T09:04:04;15.45;;;13.00;;
52956;SDS011;38819;42.692;23.342;2023-09-18T09:06:30;14.20;;;12.65;;
52956;SDS011;38819;42.692;23.342;2023-09-18T09:08:55;27.92;;;13.15;;
52956;SDS011;38819;42.692;23.342;2023-09-18T09:11:21;13.35;;;12.05;;
52956;SDS011;38819;42.692;23.342;2023-09-18T09:13:47;17.33;;;11.82;;
52956;SDS011;38819;42.692;23.342;2023-09-18T09:16:33;20.65;;;12.02;;
52956;SDS011;38819;42.692;23.342;2023-09-18T09:18:59;15.55;;;11.20;;
52956;SDS011;38819;42.692;23.342;2023-09-18T09:21:25;17.30;;;12.48;;
52956;SDS011;38819;42.692;23.342;2023-09-18T09:24:04;18.17;;;12.73;;
52956;SDS011;38819;42.692;23.342;2023-09-18T09:26:30;19.02;;;12.52;;
52956;SDS011;38819;42.692;23.342;2023-09-18T09:28:55;19.45;;;12.15;;
52956;SDS011;38819;42.692;23.342;2023-09-18T09:33:52;19.77;;;10.38;;
52956;SDS011;38819;42.692;23.342;2023-09-18T09:36:19;13.40;;;9.65;;
52956;SDS011;38819;42.692;23.342;2023-09-18T09:38:47;10.52;;;8.60;;
52956;SDS011;38819;42.692;23.342;2023-09-18T09:41:14;12.93;;;8.88;;
52956;SDS011;38819;42.692;23.342;2023-09-18T09:43:42;12.98;;;10.52;;
52956;SDS011;38819;42.692;23.342;2023-09-18T09:46:14;14.50;;;10.75;;
52956;SDS011;38819;42.692;23.342;2023-09-18T09:51:28;14.43;;;10.60;;
52956;SDS011;38819;42.692;23.342;2023-09-18T09:53:54;12.70;;;11.23;;
52956;SDS011;38819;42.692;23.342;2023-09-18T09:56:20;19.33;;;11.65;;
52956;SDS011;38819;42.692;23.342;2023-09-18T09:59:02;15.35;;;9.93;;
52956;SDS011;38819;42.692;23.342;2023-09-18T10:01:34;18.17;;;10.77;;
52956;SDS011;38819;42.692;23.342;2023-09-18T10:04:04;15.53;;;10.07;;
52956;SDS011;38819;42.692;23.342;2023-09-18T10:06:33;14.38;;;8.73;;
52956;SDS011;38819;42.692;23.342;2023-09-18T10:09:04;12.57;;;8.52;;
52956;SDS011;38819;42.692;23.342;2023-09-18T10:11:33;19.63;;;10.23;;
52956;SDS011;38819;42.692;23.342;2023-09-18T10:14:04;10.95;;;8.82;;
52956;SDS011;38819;42.692;23.342;2023-09-18T10:16:36;10.57;;;8.23;;
52956;SDS011;38819;42.692;23.342;2023-09-18T10:19:14;12.00;;;9.10;;
52956;SDS011;38819;42.692;23.342;2023-09-18T10:25:12;9.85;;;7.35;;
52956;SDS011;38819;42.692;23.342;2023-09-18T10:27:46;8.20;;;6.63;;
52956;SDS011;38819;42.692;23.342;2023-09-18T10:30:33;26.48;;;11.52;;
52956;SDS011;38819;42.692;23.342;2023-09-18T10:33:02;10.23;;;7.32;;
52956;SDS011;38819;42.692;23.342;2023-09-18T10:35:28;20.90;;;8.45;;
52956;SDS011;38819;42.692;23.342;2023-09-18T10:37:54;9.55;;;7.90;;
52956;SDS011;38819;42.692;23.342;2023-09-18T10:40:21;13.47;;;8.00;;
52956;SDS011;38819;42.692;23.342;2023-09-18T10:42:47;12.23;;;7.07;;
52956;SDS011;38819;42.692;23.342;2023-09-18T10:45:15;8.40;;;6.18;;
52956;SDS011;38819;42.692;23.342;2023-09-18T10:47:44;9.98;;;5.45;;
52956;SDS011;38819;42.692;23.342;2023-09-18T10:50:11;11.35;;;6.55;;
52956;SDS011;38819;42.692;23.342;2023-09-18T10:52:43;12.07;;;6.47;;
52956;SDS011;38819;42.692;23.342;2023-09-18T10:55:12;7.32;;;5.40;;
52956;SDS011;38819;42.692;23.342;2023-09-18T10:57:52;6.75;;;5.78;;
52956;SDS011;38819;42.692;23.342;2023-09-18T11:00:20;8.30;;;5.88;;
52956;SDS011;38819;42.692;23.342;2023-09-18T11:02:48;8.18;;;5.78;;
52956;SDS011;38819;42.692;23.342;2023-09-18T11:05:25;10.73;;;6.07;;
52956;SDS011;38819;42.692;23.342;2023-09-18T11:10:54;6.50;;;5.57;;
52956;SDS011;38819;42.692;23.342;2023-09-18T11:21:25;8.77;;;4.78;;
52956;SDS011;38819;42.692;23.342;2023-09-18T11:29:06;6.93;;;4.78;;
52956;SDS011;38819;42.692;23.342;2023-09-18T11:31:40;7.50;;;5.30;;
52956;SDS011;38819;42.692;23.342;2023-09-18T11:34:27;5.97;;;4.65;;
52956;SDS011;38819;42.692;23.342;2023-09-18T11:36:58;8.50;;;5.18;;
52956;SDS011;38819;42.692;23.342;2023-09-18T11:39:37;7.53;;;5.05;;
52956;SDS011;38819;42.692;23.342;2023-09-18T11:42:10;8.75;;;5.50;;
52956;SDS011;38819;42.692;23.342;2023-09-18T11:44:37;6.10;;;4.82;;
52956;SDS011;38819;42.692;23.342;2023-09-18T11:47:10;11.07;;;6.07;;
52956;SDS011;38819;42.692;23.342;2023-09-18T11:49:47;4.85;;;4.45;;
52956;SDS011;38819;42.692;23.342;2023-09-18T11:52:16;8.98;;;4.80;;
52956;SDS011;38819;42.692;23.342;2023-09-18T11:54:42;6.68;;;4.25;;
52956;SDS011;38819;42.692;23.342;2023-09-18T11:57:07;5.57;;;4.70;;
52956;SDS011;38819;42.692;23.342;2023-09-18T11:59:34;6.63;;;4.40;;
52956;SDS011;38819;42.692;23.342;2023-09-18T12:02:02;7.32;;;4.35;;
52956;SDS011;38819;42.692;23.342;2023-09-18T12:04:31;4.90;;;4.50;;
52956;SDS011;38819;42.692;23.342;2023-09-18T12:06:58;32.50;;;21.73;;
52956;SDS011;38819;42.692;23.342;2023-09-18T12:09:28;5.32;;;4.57;;
52956;SDS011;38819;42.692;23.342;2023-09-18T12:11:56;8.55;;;4.57;;
52956;SDS011;38819;42.692;23.342;2023-09-18T12:14:23;21.20;;;5.60;;
52956;SDS011;38819;42.692;23.342;2023-09-18T12:16:49;5.03;;;4.53;;
52956;SDS011;38819;42.692;23.342;2023-09-18T12:19:18;7.03;;;4.63;;
52956;SDS011;38819;42.692;23.342;2023-09-18T12:21:47;6.35;;;4.35;;
52956;SDS011;38819;42.692;23.342;2023-09-18T12:24:14;5.25;;;4.35;;
52956;SDS011;38819;42.692;23.342;2023-09-18T12:26:40;4.53;;;4.13;;
52956;SDS011;38819;42.692;23.342;2023-09-18T12:29:06;5.20;;;4.65;;
52956;SDS011;38819;42.692;23.342;2023-09-18T12:31:32;5.18;;;4.60;;
52956;SDS011;38819;42.692;23.342;2023-09-18T12:33:58;6.53;;;4.18;;
52956;SDS011;38819;42.692;23.342;2023-09-18T12:36:24;10.53;;;4.63;;
52956;SDS011;38819;42.692;23.342;2023-09-18T12:38:57;8.45;;;4.75;;
52956;SDS011;38819;42.692;23.342;2023-09-18T12:41:25;7.55;;;4.60;;
52956;SDS011;38819;42.692;23.342;2023-09-18T12:43:51;6.32;;;4.75;;
52956;SDS011;38819;42.692;23.342;2023-09-18T12:46:17;4.97;;;4.18;;
52956;SDS011;38819;42.692;23.342;2023-09-18T12:48:44;7.78;;;4.45;;
52956;SDS011;38819;42.692;23.342;2023-09-18T12:51:13;4.22;;;3.85;;
52956;SDS011;38819;42.692;23.342;2023-09-18T12:53:47;9.35;;;4.78;;
52956;SDS011;38819;42.692;23.342;2023-09-18T12:56:13;6.28;;;4.80;;
52956;SDS011;38819;42.692;23.342;2023-09-18T12:58:39;7.78;;;4.53;;
52956;SDS011;38819;42.692;23.342;2023-09-18T13:01:09;7.15;;;4.90;;
52956;SDS011;38819;42.692;23.342;2023-09-18T13:03:46;11.18;;;7.30;;
52956;SDS011;38819;42.692;23.342;2023-09-18T13:06:15;7.85;;;4.70;;
52956;SDS011;38819;42.692;23.342;2023-09-18T13:08:44;8.35;;;5.38;;
52956;SDS011;38819;42.692;23.342;2023-09-18T13:11:10;9.07;;;5.07;;
52956;SDS011;38819;42.692;23.342;2023-09-18T13:13:37;7.23;;;5.77;;
52956;SDS011;38819;42.692;23.342;2023-09-18T13:16:06;4.80;;;4.30;;
52956;SDS011;38819;42.692;23.342;2023-09-18T13:18:34;9.27;;;4.93;;
52956;SDS011;38819;42.692;23.342;2023-09-18T13:20:59;13.20;;;4.72;;
52956;SDS011;38819;42.692;23.342;2023-09-18T13:23:34;7.50;;;4.78;;
52956;SDS011;38819;42.692;23.342;2023-09-18T13:26:00;8.30;;;4.60;;
52956;SDS011;38819;42.692;23.342;2023-09-18T13:28:30;104.65;;;16.85;;
52956;SDS011;38819;42.692;23.342;2023-09-18T13:30:58;17.90;;;10.52;;
52956;SDS011;38819;42.692;23.342;2023-09-18T13:33:24;7.53;;;4.60;;
52956;SDS011;38819;42.692;23.342;2023-09-18T13:35:51;11.15;;;4.90;;
52956;SDS011;38819;42.692;23.342;2023-09-18T13:38:18;7.80;;;4.40;;
52956;SDS011;38819;42.692;23.342;2023-09-18T13:40:45;9.70;;;5.20;;
52956;SDS011;38819;42.692;23.342;2023-09-18T13:43:12;6.40;;;4.22;;
52956;SDS011;38819;42.692;23.342;2023-09-18T13:45:40;8.13;;;4.15;;
52956;SDS011;38819;42.692;23.342;2023-09-18T13:48:06;7.60;;;4.47;;
52956;SDS011;38819;42.692;23.342;2023-09-18T13:50:32;6.43;;;4.22;;
52956;SDS011;38819;42.692;23.342;2023-09-18T13:52:58;5.10;;;4.53;;
52956;SDS011;38819;42.692;23.342;2023-09-18T13:55:24;7.75;;;4.45;;
52956;SDS011;38819;42.692;23.342;2023-09-18T13:57:50;5.80;;;4.45;;
52956;SDS011;38819;42.692;23.342;2023-09-18T14:00:16;8.65;;;3.85;;
52956;SDS011;38819;42.692;23.342;2023-09-18T14:02:42;7.75;;;4.85;;
52956;SDS011;38819;42.692;23.342;2023-09-18T14:05:08;6.43;;;3.85;;
52956;SDS011;38819;42.692;23.342;2023-09-18T14:07:34;7.88;;;4.30;;
52956;SDS011;38819;42.692;23.342;2023-09-18T14:10:00;6.10;;;4.40;;
52956;SDS011;38819;42.692;23.342;2023-09-18T14:12:29;8.80;;;4.43;;
52956;SDS011;38819;42.692;23.342;2023-09-18T14:14:55;9.77;;;5.20;;
52956;SDS011;38819;42.692;23.342;2023-09-18T14:17:22;8.75;;;4.95;;
52956;SDS011;38819;42.692;23.342;2023-09-18T14:19:47;7.38;;;4.32;;
52956;SDS011;38819;42.692;23.342;2023-09-18T14:22:13;9.98;;;4.90;;
52956;SDS011;38819;42.692;23.342;2023-09-18T14:24:39;8.15;;;4.57;;
52956;SDS011;38819;42.692;23.342;2023-09-18T14:27:04;10.05;;;5.05;;
52956;SDS011;38819;42.692;23.342;2023-09-18T14:29:31;8.68;;;4.80;;
52956;SDS011;38819;42.692;23.342;2023-09-18T14:31:57;9.52;;;4.15;;
52956;SDS011;38819;42.692;23.342;2023-09-18T14:34:22;8.40;;;4.65;;
52956;SDS011;38819;42.692;23.342;2023-09-18T14:36:48;5.13;;;4.63;;
52956;SDS011;38819;42.692;23.342;2023-09-18T14:39:13;6.78;;;4.25;;
52956;SDS011;38819;42.692;23.342;2023-09-18T14:41:38;8.68;;;4.80;;
52956;SDS011;38819;42.692;23.342;2023-09-18T14:44:08;6.63;;;4.70;;
52956;SDS011;38819;42.692;23.342;2023-09-18T14:46:34;7.72;;;4.32;;
52956;SDS011;38819;42.692;23.342;2023-09-18T14:49:02;7.97;;;4.30;;
52956;SDS011;38819;42.692;23.342;2023-09-18T14:51:32;6.55;;;4.22;;
52956;SDS011;38819;42.692;23.342;2023-09-18T14:53:58;9.30;;;4.90;;
52956;SDS011;38819;42.692;23.342;2023-09-18T14:56:24;7.65;;;4.60;;